Time;durP1;ratioP1;P1;durP2;ratioP2;P2;SDS_P1;SDS_P2;PMS_P1;PMS_P2;Temp;Humidity;BMP_temperature;BMP_pressure;BME280_temperature;BME280_humidity;BME280_pressure;Samples;Min_cycle;Max_cycle;Signal;HPM_P1;HPM_P2
2021/08/06 00:01:36;;;;;;;9.27;8.48;;;13.70;99.90;;;;;;5074833;28;20057;-90
2021/08/06 00:04:03;;;;;;;8.70;7.90;;;13.80;99.90;;;;;;5074207;28;20048;-90
2021/08/06 00:06:40;;;;;;;9.52;8.73;;;13.80;99.90;;;;;;5074360;28;20055;-90
2021/08/06 00:09:09;;;;;;;9.00;8.20;;;13.80;99.90;;;;;;5074404;28;20048;-88
2021/08/06 00:11:36;;;;;;;9.70;8.73;;;13.80;99.90;;;;;;5074334;28;20580;-90
2021/08/06 00:14:04;;;;;;;8.68;7.97;;;13.80;99.90;;;;;;5074285;28;20055;-90
2021/08/06 00:16:31;;;;;;;7.80;7.20;;;13.80;99.90;;;;;;5073700;28;20052;-91
2021/08/06 00:18:57;;;;;;;8.73;7.93;;;13.90;99.90;;;;;;5074070;28;20056;-91
2021/08/06 00:21:24;;;;;;;7.95;7.25;;;13.90;99.90;;;;;;5074148;28;20140;-91
2021/08/06 00:23:51;;;;;;;8.18;7.38;;;14.00;99.90;;;;;;5073913;28;20049;-90
2021/08/06 00:26:18;;;;;;;7.18;6.57;;;13.90;99.90;;;;;;5073852;28;20135;-90
2021/08/06 00:28:45;;;;;;;8.43;7.63;;;13.90;99.90;;;;;;5079522;28;20408;-91
2021/08/06 00:31:11;;;;;;;9.13;7.30;;;13.90;99.90;;;;;;5076207;28;20143;-90
2021/08/06 00:33:39;;;;;;;13.43;7.38;;;13.90;99.90;;;;;;5073886;28;20476;-91
2021/08/06 00:36:06;;;;;;;13.00;7.57;;;13.80;99.90;;;;;;5073451;28;20507;-91
2021/08/06 00:38:33;;;;;;;10.80;8.15;;;13.80;99.90;;;;;;5073595;28;20055;-90
2021/08/06 00:41:00;;;;;;;10.23;8.00;;;13.80;99.90;;;;;;5073623;28;20143;-90
2021/08/06 00:43:27;;;;;;;12.10;9.05;;;13.80;99.90;;;;;;5073691;28;20128;-90
2021/08/06 00:45:54;;;;;;;9.07;7.60;;;13.70;99.90;;;;;;5073564;28;20124;-91
2021/08/06 00:48:20;;;;;;;8.43;7.63;;;13.80;99.90;;;;;;5073603;28;20053;-91
2021/08/06 00:50:47;;;;;;;8.18;7.47;;;13.70;99.90;;;;;;5073468;28;20143;-91
2021/08/06 00:53:14;;;;;;;9.38;7.40;;;13.80;99.90;;;;;;5073437;28;20687;-90
2021/08/06 00:55:41;;;;;;;9.07;7.88;;;13.70;99.90;;;;;;5073250;28;20413;-90
2021/08/06 00:58:11;;;;;;;8.52;7.63;;;13.70;99.90;;;;;;5073335;28;20041;-90
2021/08/06 01:00:37;;;;;;;13.02;8.40;;;13.60;99.90;;;;;;5073294;28;20170;-90
2021/08/06 01:03:12;;;;;;;8.27;6.97;;;13.50;99.90;;;;;;5073440;28;20106;-90
2021/08/06 01:05:44;;;;;;;9.32;6.25;;;13.50;99.90;;;;;;5072842;28;20071;-91
2021/08/06 01:08:16;;;;;;;7.30;6.15;;;13.30;99.90;;;;;;5072706;28;20468;-90
2021/08/06 01:10:56;;;;;;;6.25;5.65;;;13.20;99.90;;;;;;5073139;28;20413;-91
2021/08/06 01:13:59;;;;;;;6.75;6.25;;;13.00;99.90;;;;;;5073557;28;20415;-91
2021/08/06 01:16:34;;;;;;;5.95;5.45;;;13.10;99.90;;;;;;5059993;28;20049;-89
2021/08/06 01:19:07;;;;;;;7.35;6.28;;;13.00;99.90;;;;;;5072836;28;20411;-92
2021/08/06 01:21:42;;;;;;;9.80;7.00;;;13.00;99.90;;;;;;5074047;28;20063;-90
2021/08/06 01:24:12;;;;;;;6.57;6.07;;;12.90;99.90;;;;;;5073274;28;20055;-91
2021/08/06 01:26:40;;;;;;;6.03;5.47;;;12.90;99.90;;;;;;5076864;28;20054;-91
2021/08/06 01:29:08;;;;;;;7.03;6.40;;;12.80;99.90;;;;;;5076810;28;20528;-91
2021/08/06 01:31:35;;;;;;;6.15;5.65;;;12.70;99.90;;;;;;5073409;28;20509;-91
2021/08/06 01:34:03;;;;;;;9.05;6.30;;;12.60;99.90;;;;;;5072577;28;20052;-90
2021/08/06 01:36:30;;;;;;;5.90;5.40;;;12.50;99.90;;;;;;5072352;28;20465;-90
2021/08/06 01:38:57;;;;;;;6.47;5.97;;;12.40;99.90;;;;;;5073615;28;20135;-90
2021/08/06 01:41:58;;;;;;;5.63;5.13;;;12.30;99.90;;;;;;5073867;28;20127;-90
2021/08/06 01:44:43;;;;;;;9.20;6.50;;;12.30;99.90;;;;;;5072720;28;20052;-90
2021/08/06 01:47:21;;;;;;;6.70;6.20;;;12.20;99.90;;;;;;5076820;28;20131;-90
2021/08/06 01:49:55;;;;;;;9.60;7.00;;;12.20;99.90;;;;;;5079143;28;20171;-91
2021/08/06 01:52:30;;;;;;;6.75;6.25;;;12.20;99.90;;;;;;5072716;28;20059;-91
2021/08/06 01:55:02;;;;;;;11.00;6.10;;;12.20;99.90;;;;;;5072442;28;20048;-91
2021/08/06 01:57:32;;;;;;;7.07;6.47;;;12.20;99.90;;;;;;5072538;28;20059;-90
2021/08/06 02:00:01;;;;;;;6.63;6.10;;;12.30;99.90;;;;;;5072453;28;20041;-90
2021/08/06 02:02:28;;;;;;;6.90;6.13;;;12.30;99.90;;;;;;5072137;28;20526;-90
2021/08/06 02:04:55;;;;;;;6.70;6.10;;;12.40;99.90;;;;;;5072558;28;20087;-90
2021/08/06 02:07:22;;;;;;;7.38;5.95;;;12.30;99.90;;;;;;5072685;28;20055;-90
2021/08/06 02:09:50;;;;;;;6.60;6.10;;;12.20;99.90;;;;;;5072650;28;20110;-90
2021/08/06 02:12:16;;;;;;;7.38;6.43;;;12.20;99.90;;;;;;5072508;28;20044;-90
2021/08/06 02:14:44;;;;;;;6.75;5.90;;;12.20;99.90;;;;;;5072178;28;20052;-90
2021/08/06 02:17:13;;;;;;;9.02;6.80;;;12.20;99.90;;;;;;5072487;28;20098;-90
2021/08/06 02:19:42;;;;;;;7.85;7.15;;;12.20;99.90;;;;;;5073930;28;20049;-90
2021/08/06 02:22:12;;;;;;;8.35;7.00;;;12.10;99.90;;;;;;5076608;28;20051;-90
2021/08/06 02:24:42;;;;;;;8.80;7.13;;;12.10;99.90;;;;;;5076355;28;20044;-90
2021/08/06 02:27:12;;;;;;;10.52;8.90;;;12.10;99.90;;;;;;5076123;28;20064;-89
2021/08/06 02:29:40;;;;;;;9.68;8.38;;;12.00;99.90;;;;;;5076419;28;20445;-89
2021/08/06 02:32:08;;;;;;;8.77;7.78;;;12.00;99.90;;;;;;5076095;28;20102;-90
2021/08/06 02:34:35;;;;;;;9.82;8.57;;;12.10;99.90;;;;;;5076038;28;20074;-90
2021/08/06 02:37:02;;;;;;;14.50;10.38;;;12.20;99.90;;;;;;5075792;28;20044;-94
2021/08/06 02:39:31;;;;;;;9.45;8.45;;;12.10;99.90;;;;;;5075937;28;20048;-91
2021/08/06 02:42:01;;;;;;;8.27;6.70;;;12.20;99.90;;;;;;5076022;28;20048;-90
2021/08/06 02:44:28;;;;;;;7.45;6.68;;;12.20;99.90;;;;;;5075990;28;20135;-91
2021/08/06 02:46:55;;;;;;;6.28;5.68;;;12.20;99.90;;;;;;5075824;28;20062;-91
2021/08/06 02:49:22;;;;;;;6.60;6.00;;;12.30;99.90;;;;;;5075766;28;20600;-91
2021/08/06 02:51:49;;;;;;;8.20;6.35;;;12.20;99.90;;;;;;5075652;28;20493;-91
2021/08/06 02:54:16;;;;;;;5.90;5.50;;;12.10;99.90;;;;;;5075464;28;20055;-91
2021/08/06 02:56:42;;;;;;;7.22;5.65;;;12.10;99.90;;;;;;5075274;28;20109;-91
2021/08/06 02:59:09;;;;;;;6.20;5.70;;;12.00;99.90;;;;;;5075293;28;20071;-91
2021/08/06 03:01:36;;;;;;;5.95;5.55;;;12.00;99.90;;;;;;5075511;28;20056;-91
2021/08/06 03:04:03;;;;;;;6.68;5.93;;;12.00;99.90;;;;;;5075442;28;20091;-91
2021/08/06 03:06:29;;;;;;;11.45;6.60;;;12.10;99.90;;;;;;5080471;28;20119;-91
2021/08/06 03:08:56;;;;;;;9.75;6.68;;;12.00;99.90;;;;;;5082018;28;20075;-91
2021/08/06 03:11:23;;;;;;;6.47;5.72;;;12.10;99.90;;;;;;5075592;28;20475;-91
2021/08/06 03:13:49;;;;;;;17.15;6.15;;;12.20;99.90;;;;;;5075337;28;20066;-89
2021/08/06 03:16:16;;;;;;;12.98;8.48;;;12.20;99.90;;;;;;5075084;28;20132;-91
2021/08/06 03:18:43;;;;;;;8.80;7.85;;;12.20;99.90;;;;;;5075211;28;20504;-91
2021/08/06 03:21:14;;;;;;;8.18;7.32;;;12.20;99.90;;;;;;5075109;28;20052;-91
2021/08/06 03:23:41;;;;;;;6.95;6.35;;;12.20;99.90;;;;;;5074889;28;20051;-91
2021/08/06 03:26:07;;;;;;;10.00;5.88;;;12.20;99.90;;;;;;5074795;28;20132;-91
2021/08/06 03:28:34;;;;;;;8.75;6.90;;;12.30;99.90;;;;;;5074194;28;20078;-91
2021/08/06 03:31:01;;;;;;;7.90;7.13;;;12.40;99.90;;;;;;5074285;28;20040;-91
2021/08/06 03:33:28;;;;;;;10.10;7.13;;;12.40;99.90;;;;;;5074632;28;20048;-91
2021/08/06 03:35:54;;;;;;;8.38;7.25;;;12.50;99.90;;;;;;5074971;28;20048;-91
2021/08/06 03:38:24;;;;;;;11.35;8.65;;;12.50;99.90;;;;;;5075189;28;20048;-91
2021/08/06 03:40:52;;;;;;;15.63;9.88;;;12.50;99.90;;;;;;5074859;28;20048;-91
2021/08/06 03:43:19;;;;;;;12.73;10.15;;;12.50;99.90;;;;;;5074836;28;20058;-90
2021/08/06 03:45:46;;;;;;;12.98;9.95;;;12.50;99.90;;;;;;5074610;28;20055;-90
2021/08/06 03:48:13;;;;;;;14.60;10.57;;;12.50;99.90;;;;;;5078826;28;20048;-91
2021/08/06 03:50:40;;;;;;;12.40;9.63;;;12.50;99.90;;;;;;5080875;28;20131;-91
2021/08/06 03:53:07;;;;;;;11.90;9.02;;;12.40;99.90;;;;;;5074563;28;20147;-91
2021/08/06 03:55:34;;;;;;;10.55;9.38;;;12.40;99.90;;;;;;5074107;28;20052;-91
2021/08/06 03:58:01;;;;;;;11.77;9.43;;;12.50;99.90;;;;;;5074440;28;20052;-90
2021/08/06 04:00:33;;;;;;;13.88;10.55;;;12.50;99.90;;;;;;5074209;28;20131;-91
2021/08/06 04:03:00;;;;;;;11.00;9.52;;;12.50;99.90;;;;;;5074371;28;20049;-91
2021/08/06 04:05:26;;;;;;;14.55;9.82;;;12.50;99.90;;;;;;5074236;28;20473;-92
2021/08/06 04:07:53;;;;;;;11.25;9.88;;;12.50;99.90;;;;;;5074118;28;20144;-90
2021/08/06 04:10:21;;;;;;;13.13;11.30;;;12.60;99.90;;;;;;5074224;28;20135;-90
2021/08/06 04:12:49;;;;;;;11.98;10.02;;;12.70;99.90;;;;;;5074020;28;20052;-90
2021/08/06 04:15:16;;;;;;;13.85;10.23;;;12.80;99.90;;;;;;5074075;28;20076;-91
2021/08/06 04:17:43;;;;;;;14.73;11.15;;;12.90;99.90;;;;;;5073578;28;20424;-91
2021/08/06 04:20:11;;;;;;;11.70;9.90;;;13.00;99.90;;;;;;5073636;28;20056;-90
2021/08/06 04:22:38;;;;;;;11.77;10.48;;;13.00;99.90;;;;;;5074068;28;20415;-91
2021/08/06 04:25:06;;;;;;;10.65;9.55;;;13.10;99.90;;;;;;5076391;28;20044;-90
2021/08/06 04:27:33;;;;;;;10.75;8.68;;;13.20;99.90;;;;;;5081593;28;20052;-90
2021/08/06 04:30:00;;;;;;;9.43;8.57;;;13.30;99.90;;;;;;5073720;28;20049;-90
2021/08/06 04:32:26;;;;;;;8.00;7.20;;;13.40;99.90;;;;;;5073682;28;20419;-91
2021/08/06 04:34:53;;;;;;;8.27;7.47;;;13.40;99.90;;;;;;5073648;28;20493;-89
2021/08/06 04:37:20;;;;;;;7.63;6.90;;;13.50;99.90;;;;;;5073573;28;20135;-90
2021/08/06 04:39:48;;;;;;;6.35;5.75;;;13.60;99.90;;;;;;5073550;28;20052;-90
2021/08/06 04:42:14;;;;;;;7.65;6.68;;;13.60;99.90;;;;;;5072742;28;20063;-90
2021/08/06 04:44:41;;;;;;;6.93;6.22;;;13.60;99.90;;;;;;5073401;28;20052;-91
2021/08/06 04:47:08;;;;;;;9.30;6.32;;;13.70;99.90;;;;;;5073634;28;20053;-90
2021/08/06 04:49:35;;;;;;;5.70;5.20;;;13.70;99.90;;;;;;5073608;28;20127;-91
2021/08/06 04:52:02;;;;;;;7.32;5.15;;;13.80;99.90;;;;;;5073337;28;20072;-91
2021/08/06 04:54:29;;;;;;;5.63;4.85;;;13.80;99.90;;;;;;5073332;28;20135;-90
2021/08/06 04:56:55;;;;;;;6.95;5.30;;;13.90;99.90;;;;;;5073224;28;20059;-90
2021/08/06 04:59:22;;;;;;;14.25;5.95;;;13.90;99.90;;;;;;5073481;28;20111;-90
2021/08/06 05:01:49;;;;;;;33.15;6.75;;;14.00;99.90;;;;;;5073330;28;20056;-90
2021/08/06 05:04:15;;;;;;;29.75;6.47;;;14.00;99.90;;;;;;5072686;28;20044;-90
2021/08/06 05:06:42;;;;;;;19.13;5.95;;;14.10;99.90;;;;;;5072376;28;20415;-90
2021/08/06 05:09:09;;;;;;;15.27;5.40;;;14.10;99.90;;;;;;5072683;28;20477;-91
2021/08/06 05:11:36;;;;;;;8.55;4.95;;;14.20;99.90;;;;;;5072561;28;20143;-90
2021/08/06 05:14:03;;;;;;;11.13;4.90;;;14.20;99.90;;;;;;5072602;28;20040;-89
2021/08/06 05:16:29;;;;;;;7.68;4.55;;;14.30;99.90;;;;;;5072481;28;20055;-90
2021/08/06 05:18:56;;;;;;;7.50;3.92;;;14.30;99.90;;;;;;5072184;28;20044;-90
2021/08/06 05:21:23;;;;;;;6.00;4.60;;;14.30;99.90;;;;;;5072945;28;20300;-90
2021/08/06 05:23:50;;;;;;;9.57;3.17;;;14.40;99.90;;;;;;5072973;28;20127;-90
2021/08/06 05:26:17;;;;;;;8.32;3.58;;;14.40;99.90;;;;;;5072452;28;20044;-89
2021/08/06 05:28:44;;;;;;;5.03;3.78;;;14.50;99.90;;;;;;5072421;28;20132;-90
2021/08/06 05:31:10;;;;;;;11.05;3.50;;;14.60;99.90;;;;;;5072826;28;20135;-89
2021/08/06 05:33:37;;;;;;;3.20;2.90;;;14.70;99.90;;;;;;5072743;28;20136;-90
2021/08/06 05:36:04;;;;;;;4.32;2.72;;;14.80;99.90;;;;;;5072618;28;20143;-90
2021/08/06 05:38:31;;;;;;;23.90;3.80;;;15.00;99.90;;;;;;5072436;28;20052;-88
2021/08/06 05:40:58;;;;;;;10.18;3.40;;;15.20;99.90;;;;;;5072778;28;20058;-90
2021/08/06 05:43:24;;;;;;;9.38;3.00;;;15.40;99.90;;;;;;5073208;28;20135;-89
2021/08/06 05:45:51;;;;;;;11.15;3.17;;;15.60;99.90;;;;;;5077259;28;20473;-90
2021/08/06 05:48:18;;;;;;;15.35;3.60;;;15.90;99.90;;;;;;5074364;28;20051;-90
2021/08/06 05:50:45;;;;;;;8.23;2.95;;;15.90;99.90;;;;;;5072761;28;20098;-90
2021/08/06 05:53:12;;;;;;;16.10;3.85;;;16.10;99.90;;;;;;5072510;28;20052;-90
2021/08/06 05:55:39;;;;;;;14.20;3.03;;;16.40;99.90;;;;;;5071673;28;20044;-90
2021/08/06 05:58:05;;;;;;;6.57;2.72;;;16.90;99.90;;;;;;5072058;28;20046;-90
2021/08/06 06:00:33;;;;;;;4.68;2.83;;;17.60;99.90;;;;;;5072080;28;20049;-90
2021/08/06 06:02:59;;;;;;;4.00;2.40;;;17.70;99.90;;;;;;5072273;28;20053;-90
2021/08/06 06:05:26;;;;;;;7.47;2.72;;;17.70;99.90;;;;;;5071707;28;20424;-90
2021/08/06 06:07:53;;;;;;;11.43;3.10;;;17.90;99.90;;;;;;5071631;28;20051;-90
2021/08/06 06:10:22;;;;;;;8.90;2.63;;;17.90;99.90;;;;;;5072536;28;20051;-90
2021/08/06 06:12:50;;;;;;;2.45;2.15;;;18.30;99.90;;;;;;5073982;28;20515;-89
2021/08/06 06:15:18;;;;;;;4.00;2.10;;;19.00;99.90;;;;;;5069472;28;20464;-90
2021/08/06 06:17:45;;;;;;;2.45;2.25;;;19.50;99.90;;;;;;5071821;28;20487;-90
2021/08/06 06:20:13;;;;;;;4.25;2.20;;;19.90;99.90;;;;;;5072047;28;20053;-89
2021/08/06 06:22:40;;;;;;;2.72;2.40;;;20.00;99.90;;;;;;5072362;28;20106;-88
2021/08/06 06:25:08;;;;;;;2.42;2.30;;;20.20;99.90;;;;;;5072560;28;20041;-87
2021/08/06 06:27:55;;;;;;;2.13;2.03;;;20.20;99.90;;;;;;5072239;28;20048;-88
2021/08/06 06:30:26;;;;;;;1.95;1.85;;;20.50;99.90;;;;;;5069196;28;20481;-88
2021/08/06 06:32:54;;;;;;;2.00;1.90;;;21.20;99.90;;;;;;5072305;28;20056;-88
2021/08/06 06:35:23;;;;;;;2.28;1.90;;;22.20;99.90;;;;;;5072271;28;20128;-87
2021/08/06 06:37:50;;;;;;;1.52;1.42;;;23.50;99.90;;;;;;5072358;28;20457;-87
2021/08/06 06:40:19;;;;;;;1.80;1.70;;;24.40;99.90;;;;;;5072054;28;20050;-88
2021/08/06 06:42:47;;;;;;;1.85;1.73;;;24.80;99.90;;;;;;5073073;28;20140;-88
2021/08/06 06:45:14;;;;;;;3.17;1.70;;;25.50;99.90;;;;;;5073172;28;20481;-87
2021/08/06 06:47:44;;;;;;;2.47;1.67;;;26.00;99.90;;;;;;5072411;28;20051;-87
2021/08/06 06:50:14;;;;;;;1.92;1.83;;;26.30;99.90;;;;;;5073367;28;20040;-89
2021/08/06 06:52:42;;;;;;;2.25;1.70;;;26.10;99.90;;;;;;5072166;28;20052;-88
2021/08/06 06:55:10;;;;;;;2.28;2.00;;;25.80;99.90;;;;;;5072253;28;20076;-89
2021/08/06 06:57:56;;;;;;;1.70;1.60;;;25.10;99.90;;;;;;5070914;28;20067;-88
2021/08/06 07:00:29;;;;;;;1.98;1.88;;;25.00;99.90;;;;;;5070373;28;20075;-88
2021/08/06 07:02:56;;;;;;;2.55;1.75;;;24.50;99.90;;;;;;5070717;28;20052;-88
2021/08/06 07:05:23;;;;;;;1.60;1.45;;;25.60;99.90;;;;;;5072263;28;20072;-87
2021/08/06 07:07:50;;;;;;;2.20;2.10;;;26.50;99.90;;;;;;5076354;28;20044;-88
2021/08/06 07:10:18;;;;;;;2.15;1.80;;;26.60;99.90;;;;;;5075081;28;20052;-89
2021/08/06 07:12:46;;;;;;;1.75;1.65;;;26.30;99.90;;;;;;5075964;28;20098;-88
2021/08/06 07:15:14;;;;;;;1.63;1.63;;;26.40;99.90;;;;;;5075343;28;20053;-88
2021/08/06 07:17:42;;;;;;;1.70;1.60;;;26.20;99.90;;;;;;5075288;28;20550;-90
2021/08/06 07:20:12;;;;;;;1.88;1.80;;;26.70;99.90;;;;;;5075052;28;20048;-89
2021/08/06 07:22:40;;;;;;;1.80;1.70;;;26.90;99.90;;;;;;5075961;28;20052;-89
2021/08/06 07:25:10;;;;;;;2.97;2.17;;;27.60;99.90;;;;;;5077567;28;20063;-89
2021/08/06 07:27:37;;;;;;;1.88;1.77;;;27.20;99.90;;;;;;5074812;28;20052;-94
2021/08/06 07:30:06;;;;;;;2.60;2.40;;;26.90;99.90;;;;;;5075149;28;20507;-87
2021/08/06 07:32:33;;;;;;;2.20;1.85;;;25.20;99.90;;;;;;5075250;28;20058;-88
2021/08/06 07:35:00;;;;;;;6.32;3.00;;;25.30;99.90;;;;;;5075009;28;20047;-89
2021/08/06 07:37:28;;;;;;;8.88;2.33;;;25.10;99.90;;;;;;5074877;28;20058;-86
2021/08/06 07:39:55;;;;;;;2.00;1.90;;;25.20;99.90;;;;;;5075092;28;20084;-89
2021/08/06 07:42:22;;;;;;;12.18;2.78;;;26.00;99.90;;;;;;5076195;28;20123;-89
2021/08/06 07:44:49;;;;;;;6.75;2.08;;;26.30;99.90;;;;;;5074775;28;20055;-90
2021/08/06 07:47:16;;;;;;;3.20;2.42;;;27.00;99.90;;;;;;5075012;28;20522;-87
2021/08/06 07:49:43;;;;;;;5.93;1.90;;;27.40;99.90;;;;;;5075048;28;20485;-88
2021/08/06 07:52:12;;;;;;;30.25;8.68;;;27.20;99.90;;;;;;5074814;28;20492;-88
2021/08/06 07:54:39;;;;;;;13.10;3.10;;;27.50;99.90;;;;;;5074731;28;20132;-88
2021/08/06 07:57:06;;;;;;;6.95;2.97;;;28.60;99.90;;;;;;5074702;28;20142;-88
2021/08/06 07:59:33;;;;;;;4.72;1.40;;;28.70;99.80;;;;;;5074643;28;20135;-88
2021/08/06 08:02:00;;;;;;;12.85;4.05;;;31.20;96.10;;;;;;5076965;28;20476;-90
2021/08/06 08:04:27;;;;;;;3.80;2.40;;;31.40;85.30;;;;;;5074434;28;20139;-93
2021/08/06 08:06:53;;;;;;;6.30;3.38;;;29.10;89.90;;;;;;5074221;28;20451;-88
2021/08/06 08:09:20;;;;;;;2.10;2.00;;;27.50;94.90;;;;;;5074013;28;20053;-89
2021/08/06 08:11:47;;;;;;;2.63;2.42;;;27.80;95.50;;;;;;5075132;28;20135;-91
2021/08/06 08:14:14;;;;;;;2.42;2.22;;;29.20;92.30;;;;;;5075763;28;20075;-90
2021/08/06 08:16:41;;;;;;;1.40;1.40;;;29.40;91.80;;;;;;5074521;28;20062;-92
2021/08/06 08:19:08;;;;;;;2.20;2.10;;;30.80;90.60;;;;;;5074725;28;20121;-89
2021/08/06 08:21:35;;;;;;;5.88;2.10;;;30.70;88.20;;;;;;5074527;28;20051;-94
2021/08/06 08:24:02;;;;;;;5.20;2.53;;;28.80;90.90;;;;;;5075052;28;20110;-91
2021/08/06 08:26:29;;;;;;;6.05;2.45;;;29.10;89.90;;;;;;5077505;28;20448;-89
2021/08/06 08:28:56;;;;;;;14.50;4.05;;;28.00;91.50;;;;;;5074491;28;20481;-89
2021/08/06 08:31:22;;;;;;;2.08;1.90;;;26.80;93.30;;;;;;5077002;28;20060;-88
2021/08/06 08:33:49;;;;;;;1.80;1.70;;;25.60;97.00;;;;;;5080296;28;20135;-90
2021/08/06 08:36:18;;;;;;;2.95;2.20;;;25.30;98.40;;;;;;5084422;28;20064;-90
2021/08/06 08:38:45;;;;;;;2.75;2.22;;;25.00;99.50;;;;;;5076105;28;20068;-91
2021/08/06 08:41:12;;;;;;;3.85;2.72;;;24.60;99.70;;;;;;5074206;28;20048;-88
2021/08/06 08:43:42;;;;;;;2.90;2.03;;;24.40;99.90;;;;;;5074234;28;20471;-87
2021/08/06 08:46:10;;;;;;;6.38;2.35;;;23.80;99.90;;;;;;5073289;28;20048;-89
2021/08/06 08:48:37;;;;;;;4.35;2.28;;;23.70;99.90;;;;;;5074134;28;20059;-90
2021/08/06 08:51:04;;;;;;;2.85;2.63;;;23.40;99.90;;;;;;5073570;28;20560;-92
2021/08/06 08:53:31;;;;;;;2.70;2.50;;;23.30;99.90;;;;;;5073725;28;20140;-89
2021/08/06 08:55:58;;;;;;;2.92;2.50;;;23.10;99.90;;;;;;5073436;28;20048;-89
2021/08/06 08:58:25;;;;;;;6.05;5.55;;;22.90;99.90;;;;;;5073084;28;20135;-89
2021/08/06 09:00:53;;;;;;;4.35;4.05;;;23.10;99.90;;;;;;5073204;28;20044;-94
2021/08/06 09:03:47;;;;;;;2.58;2.30;;;23.40;99.90;;;;;;5073649;28;20060;-89
2021/08/06 09:06:14;;;;;;;9.18;2.65;;;23.00;99.90;;;;;;5073112;28;20056;-87
2021/08/06 09:08:41;;;;;;;4.00;1.90;;;23.50;99.90;;;;;;5073121;28;20131;-89
2021/08/06 09:11:31;;;;;;;2.00;1.90;;;25.10;99.90;;;;;;5073448;28;20048;-89
2021/08/06 09:14:21;;;;;;;1.63;1.52;;;26.80;99.90;;;;;;5073091;28;20052;-91
2021/08/06 09:17:03;;;;;;;6.65;6.20;;;28.70;98.60;;;;;;5073446;28;20053;-90
2021/08/06 09:19:34;;;;;;;6.82;6.32;;;29.70;93.70;;;;;;5073056;28;20143;-90
2021/08/06 09:22:12;;;;;;;2.40;2.22;;;30.30;91.90;;;;;;5073049;28;20493;-88
2021/08/06 09:25:06;;;;;;;2.33;2.20;;;31.40;89.20;;;;;;5073067;28;20140;-90
2021/08/06 09:27:41;;;;;;;5.35;4.97;;;32.10;86.00;;;;;;5073108;28;20170;-89
2021/08/06 09:30:30;;;;;;;4.75;4.30;;;31.90;81.00;;;;;;5072554;28;20519;-90
2021/08/06 09:32:57;;;;;;;2.58;2.30;;;31.60;80.90;;;;;;5073059;28;20052;-88
2021/08/06 09:35:26;;;;;;;1.70;1.70;;;31.00;82.10;;;;;;5072946;28;20052;-91
2021/08/06 09:37:55;;;;;;;1.50;1.40;;;29.70;82.10;;;;;;5072753;28;20052;-88
2021/08/06 09:40:25;;;;;;;7.35;3.25;;;28.30;86.50;;;;;;5073643;28;20048;-88
2021/08/06 09:42:58;;;;;;;3.50;2.00;;;26.00;91.20;;;;;;5072748;28;20054;-88
2021/08/06 09:45:28;;;;;;;2.58;1.75;;;25.30;97.70;;;;;;5074060;28;20404;-89
2021/08/06 09:47:55;;;;;;;3.03;1.58;;;24.70;99.90;;;;;;5076800;28;20056;-89
2021/08/06 09:50:41;;;;;;;1.52;1.42;;;23.80;99.90;;;;;;5072718;28;20501;-90
2021/08/06 09:53:08;;;;;;;3.28;1.63;;;23.10;99.90;;;;;;5072685;28;20048;-88
2021/08/06 09:55:37;;;;;;;1.77;1.67;;;22.70;99.90;;;;;;5072070;28;20072;-88
2021/08/06 09:58:10;;;;;;;5.20;2.00;;;22.60;99.90;;;;;;5072695;28;20098;-88
2021/08/06 10:00:49;;;;;;;1.52;1.40;;;22.70;99.90;;;;;;5072619;28;20079;-89
2021/08/06 10:03:34;;;;;;;12.02;2.00;;;22.70;99.90;;;;;;5072484;28;20060;-88
2021/08/06 10:06:15;;;;;;;6.70;1.42;;;22.70;99.90;;;;;;5072201;28;20048;-90
2021/08/06 10:08:44;;;;;;;1.45;1.35;;;23.20;99.90;;;;;;5072370;28;20048;-86
2021/08/06 10:11:11;;;;;;;3.47;1.20;;;23.60;99.90;;;;;;5072618;28;20044;-88
2021/08/06 10:13:39;;;;;;;0.98;0.98;;;24.10;99.90;;;;;;5072042;28;20380;-92
2021/08/06 10:16:06;;;;;;;1.00;1.00;;;24.40;99.90;;;;;;5072651;28;20504;-87
2021/08/06 10:18:33;;;;;;;1.20;1.20;;;24.30;99.90;;;;;;5072153;28;20140;-88
2021/08/06 10:21:01;;;;;;;1.38;1.05;;;23.80;99.90;;;;;;5072551;28;20059;-87
2021/08/06 10:23:27;;;;;;;1.20;1.20;;;24.10;99.90;;;;;;5072597;28;20048;-88
2021/08/06 10:25:55;;;;;;;1.48;1.38;;;24.50;99.90;;;;;;5072619;28;20044;-87
2021/08/06 10:28:22;;;;;;;5.45;2.28;;;24.90;99.90;;;;;;5072274;28;20056;-87
2021/08/06 10:30:48;;;;;;;1.02;1.02;;;24.30;99.90;;;;;;5072134;28;20484;-86
2021/08/06 10:33:24;;;;;;;2.35;0.90;;;24.60;99.90;;;;;;5072391;28;20052;-86
2021/08/06 10:35:53;;;;;;;1.63;0.90;;;24.60;99.90;;;;;;5072471;28;20054;-91
2021/08/06 10:38:36;;;;;;;1.48;0.90;;;24.20;99.90;;;;;;5072189;28;20049;-88
2021/08/06 10:41:10;;;;;;;1.58;1.10;;;23.90;99.90;;;;;;5073493;28;20068;-87
2021/08/06 10:43:48;;;;;;;3.65;2.13;;;23.50;99.90;;;;;;5075688;28;20080;-87
2021/08/06 10:46:17;;;;;;;2.72;1.20;;;22.90;99.90;;;;;;5075829;28;20124;-87
2021/08/06 10:48:50;;;;;;;1.65;0.90;;;22.90;99.90;;;;;;5075893;28;20177;-88
2021/08/06 10:51:17;;;;;;;4.05;1.20;;;22.70;99.90;;;;;;5075912;28;20054;-88
2021/08/06 10:53:54;;;;;;;2.53;1.02;;;22.80;99.90;;;;;;5075817;28;20048;-89
2021/08/06 10:56:28;;;;;;;1.92;1.40;;;22.90;99.90;;;;;;5075626;28;20135;-88
2021/08/06 10:58:55;;;;;;;;;;;23.30;99.90;;;;;;5076011;28;20115;-88
2021/08/06 11:01:24;;;;;;;1.10;1.10;;;23.10;99.90;;;;;;5075508;28;19927;-89
2021/08/06 11:04:16;;;;;;;0.85;0.80;;;23.00;99.90;;;;;;5075523;28;20045;-89
2021/08/06 11:06:53;;;;;;;9.90;3.28;;;23.00;99.90;;;;;;5068126;28;20048;-89
2021/08/06 11:09:23;;;;;;;4.85;0.82;;;22.80;99.90;;;;;;5075962;28;20045;-91
2021/08/06 11:11:54;;;;;;;4.15;0.70;;;22.30;99.90;;;;;;5075025;28;20095;-87
2021/08/06 11:14:30;;;;;;;1.20;0.65;;;22.00;99.90;;;;;;5075422;28;20052;-87
2021/08/06 11:17:03;;;;;;;2.42;0.57;;;21.90;99.90;;;;;;5075966;28;20437;-91
2021/08/06 11:19:44;;;;;;;0.40;0.40;;;21.80;99.90;;;;;;5075294;28;20071;-91
2021/08/06 11:22:17;;;;;;;4.65;0.80;;;21.60;99.90;;;;;;5076759;28;20048;-88
2021/08/06 11:24:50;;;;;;;1.60;0.57;;;21.70;99.90;;;;;;5075559;28;20055;-88
2021/08/06 11:27:19;;;;;;;0.50;0.50;;;21.60;99.90;;;;;;5075261;28;20055;-91
2021/08/06 11:30:08;;;;;;;1.20;0.60;;;22.00;99.90;;;;;;5075368;28;20055;-88
2021/08/06 11:32:48;;;;;;;1.60;0.32;;;22.70;99.90;;;;;;5075370;28;20108;-86
2021/08/06 11:35:18;;;;;;;0.45;0.45;;;23.30;99.90;;;;;;5075676;28;20059;-88
2021/08/06 11:37:56;;;;;;;0.30;0.30;;;23.30;99.90;;;;;;5076025;28;20056;-90
2021/08/06 11:40:27;;;;;;;0.32;0.32;;;23.30;99.90;;;;;;5076705;28;20079;-89
2021/08/06 11:42:55;;;;;;;0.40;0.40;;;22.80;99.90;;;;;;5076086;28;20510;-89
2021/08/06 11:45:29;;;;;;;0.40;0.40;;;22.40;99.90;;;;;;5075232;28;20550;-90
2021/08/06 11:48:01;;;;;;;2.08;0.43;;;22.30;99.90;;;;;;5075024;28;20052;-90
2021/08/06 11:50:35;;;;;;;0.50;0.45;;;22.30;99.90;;;;;;5076123;28;20059;-89
2021/08/06 11:53:10;;;;;;;0.68;0.50;;;22.80;99.90;;;;;;5074922;28;20044;-94
2021/08/06 11:55:37;;;;;;;0.50;0.50;;;23.40;99.90;;;;;;5075233;28;20052;-90
2021/08/06 11:58:04;;;;;;;3.17;0.77;;;23.50;99.90;;;;;;5074255;28;20048;-91
2021/08/06 12:00:35;;;;;;;2.35;0.98;;;23.70;99.90;;;;;;5074301;28;20053;-89
2021/08/06 12:03:03;;;;;;;0.50;0.50;;;23.20;99.90;;;;;;5074723;28;20052;-89
2021/08/06 12:05:31;;;;;;;1.45;0.60;;;23.60;99.90;;;;;;5074430;28;20052;-88
2021/08/06 12:08:11;;;;;;;3.50;0.60;;;23.40;99.90;;;;;;5074495;28;20139;-89
2021/08/06 12:10:38;;;;;;;0.43;0.40;;;23.30;99.90;;;;;;5073626;28;20162;-88
2021/08/06 12:13:10;;;;;;;3.70;0.40;;;22.70;99.90;;;;;;5073766;28;20071;-88
2021/08/06 12:15:38;;;;;;;0.40;0.40;;;22.40;99.90;;;;;;5074569;28;20058;-87
2021/08/06 12:18:12;;;;;;;2.05;0.75;;;22.00;99.90;;;;;;5073891;28;20051;-88
2021/08/06 12:21:01;;;;;;;0.50;0.50;;;21.50;99.90;;;;;;5075052;28;20408;-90
2021/08/06 12:23:29;;;;;;;0.82;0.82;;;21.70;99.90;;;;;;5076220;28;20082;-95
2021/08/06 12:26:11;;;;;;;0.65;0.50;;;22.20;99.90;;;;;;5078681;28;20048;-89
2021/08/06 12:28:44;;;;;;;0.45;0.45;;;22.50;99.90;;;;;;5075895;28;20056;-89
2021/08/06 12:31:14;;;;;;;0.40;0.40;;;22.40;99.90;;;;;;5074765;28;20048;-90
2021/08/06 12:33:43;;;;;;;1.33;0.50;;;22.60;99.90;;;;;;5074501;28;20052;-92
2021/08/06 12:36:19;;;;;;;0.73;0.50;;;22.50;99.90;;;;;;5075111;28;20052;-91
2021/08/06 12:38:50;;;;;;;2.85;0.75;;;22.50;99.90;;;;;;5074605;28;20049;-92
2021/08/06 12:41:31;;;;;;;1.02;0.70;;;22.80;99.90;;;;;;5075715;28;20546;-95
2021/08/06 12:44:20;;;;;;;1.83;0.60;;;22.80;99.90;;;;;;5074831;28;20139;-92
2021/08/06 12:47:11;;;;;;;1.08;0.70;;;22.80;99.90;;;;;;5074416;28;20068;-90
2021/08/06 12:49:54;;;;;;;2.15;0.50;;;22.80;99.90;;;;;;5075216;28;20558;-88
2021/08/06 12:52:26;;;;;;;9.82;0.60;;;22.70;99.90;;;;;;5075779;28;20073;-93
2021/08/06 12:55:02;;;;;;;0.50;0.40;;;22.50;99.90;;;;;;5075118;28;20413;-93
2021/08/06 12:57:56;;;;;;;4.63;0.75;;;22.60;99.90;;;;;;5074931;28;20052;-91
2021/08/06 13:00:31;;;;;;;4.90;0.47;;;22.70;99.90;;;;;;5072357;28;20485;-89